Airfield :
LOGIN :

Register | Disclaimer

   EN    FR    IT 

 










Legend :    VFR   Marginal VFR   IFR   Intensive IFR   Very Intensive IFR
Visi :
Ceiling :
>= 8 km
>= 3000ft
5 to 8 km
1000 to 3000 ft
1500m to 5 km
500 to 1000 ft
800 to 1500m
200 to 500 ft
< 800m
< 200 ft
Symbols :   Thunderstorms  Fog  Heavy snow  Heavy precipitations  Wind > 20 kt
SIGMETs :     Misc.  Thunderstorms  Icing  Turbulence  Mountain Waves  Volcanic Ashes







- Airport Elevation : 129 ft
- IATA code : ZCN


ETHC - Celle

CURRENT METAR :
  • 190720Z 24008KT 8000 SCT030 BKN100 07/04 Q1015 BLU BLU TEMPO GRN

EXPIRED METARs :
  • 190650Z 25009KT 7000 FEW015 BKN080 BKN150 07/04 Q1014 WHT WHT TEMPO GRN
  • 190620Z 25009KT 7000 -RA BKN015 07/04 Q1014 WHT WHT TEMPO GRN
  • 190520Z 24009KT 9999 FEW014 BKN020 BKN200 08/02 Q1013 WHT WHT TEMPO GRN
  • 190420Z 24009KT 9999 BKN170 08/02 Q1013 BLU

TAF TAF ETHC
Valid from the 19 at 06:00 until the 19 at 15:00 UTC


190507Z 1906/1915 24012KT 9999 NSW SCT010 BKN015
TEMPO 1906/1910 24012G22KT 5000 -RADZ BKN008
BECMG 1910/1912 25015G25KT 9999 NSW SCT015 BKN030
No reported NOTAMs for that airfield.



MET'MAP, your aeronautical weather chart ! - Copyright ORBIFLY December 2007 - Disclaimer

ORBIFLY MET'MAP TEAM :

Programming & Development : Alexandra Zaïnal
Concept & Development : Baudouin d'Aumeries
Co-Development & Prog : Marc-Olivier Méhu
Technical & hardware support : Manuel Goepfert

Contact : metmap@orbifly.com




SOURCES & CREDITS :

   NOAA